Time;durP1;ratioP1;P1;durP2;ratioP2;P2;SDS_P1;SDS_P2;PMS_P1;PMS_P2;Temp;Humidity;BMP_temperature;BMP_pressure;BME280_temperature;BME280_humidity;BME280_pressure;Samples;Min_cycle;Max_cycle;Signal;HPM_P1;HPM_P2
2021/05/05 00:01:00;;;;;;;;;;;;;;;9.27;68.94;99266.07;1602965;87;20440;-74
2021/05/05 00:03:26;;;;;;;;;;;;;;;9.26;69.07;99265.23;1605425;87;20262;-74
2021/05/05 00:06:01;;;;;;;;;;;;;;;9.23;68.99;99265.77;1622360;87;20259;-74
2021/05/05 00:08:27;;;;;;;;;;;;;;;9.21;69.08;99267.55;1610939;86;20264;-74
2021/05/05 00:10:53;;;;;;;;;;;;;;;9.19;69.03;99269.34;1618012;87;20223;-74
2021/05/05 00:13:19;;;;;;;;;;;;;;;9.17;69.07;99270.67;1618030;86;20268;-74
2021/05/05 00:15:45;;;;;;;;;;;;;;;9.18;69.08;99268.94;1625305;86;20268;-73
2021/05/05 00:18:12;;;;;;;;;;;;;;;9.17;69.16;99264.67;1598743;86;20268;-74
2021/05/05 00:20:38;;;;;;;;;;;;;;;9.18;69.11;99265.08;1621368;87;20277;-74
2021/05/05 00:23:04;;;;;;;;;;;;;;;9.18;69.08;99263.34;1598178;89;20266;-74
2021/05/05 00:25:30;;;;;;;;;;;;;;;9.19;69.16;99257.73;1632721;87;20280;-74
2021/05/05 00:27:57;;;;;;;;;;;;;;;9.20;69.10;99255.11;1626442;87;20192;-74
2021/05/05 00:30:29;;;;;;;;;;;;;;;9.21;69.11;99258.53;1614422;87;20162;-74
2021/05/05 00:32:55;;;;;;;;;;;;;;;9.20;69.09;99258.97;1632469;87;20269;-74
2021/05/05 00:35:21;;;;;;;;;;;;;;;9.16;69.03;99254.80;1618966;86;20314;-74
2021/05/05 00:37:47;;;;;;;;;;;;;;;9.14;69.12;99261.75;1622581;87;20611;-74
2021/05/05 00:40:13;;;;;;;;;;;;;;;9.10;69.13;99258.87;1623243;87;20198;-73
2021/05/05 00:42:40;;;;;;;;;;;;;;;9.05;68.99;99253.02;1620831;87;20261;-73
2021/05/05 00:45:08;;;;;;;;;;;;;;;9.01;69.06;99254.00;1641243;87;20262;-74
2021/05/05 00:47:34;;;;;;;;;;;;;;;8.93;69.17;99251.66;1622181;86;20272;-74
2021/05/05 00:50:01;;;;;;;;;;;;;;;8.89;69.24;99255.22;1611158;87;20255;-74
2021/05/05 00:52:33;;;;;;;;;;;;;;;8.85;69.28;99256.65;1626184;87;20299;-74
2021/05/05 00:54:59;;;;;;;;;;;;;;;8.81;69.23;99252.52;1608109;87;20288;-74
2021/05/05 00:57:27;;;;;;;;;;;;;;;8.76;69.32;99254.38;1609719;87;20265;-74
2021/05/05 00:59:53;;;;;;;;;;;;;;;8.73;69.40;99252.74;1629675;87;20263;-74
2021/05/05 01:02:19;;;;;;;;;;;;;;;8.69;69.38;99254.17;1639083;86;20257;-74
2021/05/05 01:04:45;;;;;;;;;;;;;;;8.66;69.34;99246.53;1625770;87;20218;-73
2021/05/05 01:07:11;;;;;;;;;;;;;;;8.59;69.35;99242.00;1609642;87;20153;-74
2021/05/05 01:09:41;;;;;;;;;;;;;;;8.54;69.50;99242.58;1634058;86;20282;-74
2021/05/05 01:12:08;;;;;;;;;;;;;;;8.51;69.52;99246.09;1627541;87;20270;-73
2021/05/05 01:14:34;;;;;;;;;;;;;;;8.47;69.47;99246.23;1608858;87;20515;-73
2021/05/05 01:17:00;;;;;;;;;;;;;;;8.42;69.56;99245.08;1531247;85;10001002;-73
2021/05/05 01:19:26;;;;;;;;;;;;;;;8.41;69.71;99248.98;1626239;87;20275;-74
2021/05/05 01:21:52;;;;;;;;;;;;;;;8.35;69.75;99246.14;1627366;86;20263;-74
2021/05/05 01:24:18;;;;;;;;;;;;;;;8.33;69.76;99247.06;1616003;86;20280;-74
2021/05/05 01:26:44;;;;;;;;;;;;;;;8.28;69.74;99246.75;1618506;87;20246;-74
2021/05/05 01:29:11;;;;;;;;;;;;;;;8.21;69.58;99242.66;1622237;87;20262;-74
2021/05/05 01:31:37;;;;;;;;;;;;;;;8.13;69.77;99243.33;1614494;86;20262;-74
2021/05/05 01:34:03;;;;;;;;;;;;;;;8.09;69.79;99237.02;1624447;87;20172;-74
2021/05/05 01:36:35;;;;;;;;;;;;;;;8.05;69.84;99237.98;1622664;86;20260;-74
2021/05/05 01:39:07;;;;;;;;;;;;;;;8.02;69.96;99241.48;1609738;87;20274;-74
2021/05/05 01:41:34;;;;;;;;;;;;;;;8.00;69.99;99238.11;1636983;87;20261;-73
2021/05/05 01:44:00;;;;;;;;;;;;;;;7.97;69.94;99244.19;1639180;87;20267;-73
2021/05/05 01:46:27;;;;;;;;;;;;;;;7.95;70.03;99241.25;1629570;86;20174;-73
2021/05/05 01:48:53;;;;;;;;;;;;;;;7.91;69.97;99235.34;1622452;87;20178;-73
2021/05/05 01:51:19;;;;;;;;;;;;;;;7.88;70.01;99237.16;1627010;87;20279;-73
2021/05/05 01:53:45;;;;;;;;;;;;;;;7.85;69.99;99233.38;1622440;87;20276;-73
2021/05/05 01:56:11;;;;;;;;;;;;;;;7.82;70.19;99238.61;1632466;87;20279;-73
2021/05/05 01:58:44;;;;;;;;;;;;;;;7.81;70.27;99236.92;1626268;87;20290;-74
2021/05/05 02:01:10;;;;;;;;;;;;;;;7.78;70.19;99237.88;1631982;87;20215;-74
2021/05/05 02:03:36;;;;;;;;;;;;;;;7.77;70.25;99242.62;1640177;86;20202;-74
2021/05/05 02:06:02;;;;;;;;;;;;;;;7.75;70.26;99237.95;1622223;86;20279;-74
2021/05/05 02:08:28;;;;;;;;;;;;;;;7.73;70.18;99232.01;1629590;87;20279;-74
2021/05/05 02:10:54;;;;;;;;;;;;;;;7.71;70.32;99227.34;1615693;86;20299;-74
2021/05/05 02:13:20;;;;;;;;;;;;;;;7.71;70.29;99232.94;1624837;87;20168;-74
2021/05/05 02:15:46;;;;;;;;;;;;;;;7.70;70.32;99228.67;1637382;86;20192;-74
2021/05/05 02:18:12;;;;;;;;;;;;;;;7.69;70.38;99229.11;1615198;87;20692;-74
2021/05/05 02:20:38;;;;;;;;;;;;;;;7.70;70.45;99233.81;1639010;87;20251;-74
2021/05/05 02:23:05;;;;;;;;;;;;;;;7.69;70.44;99229.11;1610544;87;20248;-73
2021/05/05 02:25:31;;;;;;;;;;;;;;;7.68;70.40;99233.02;1626452;87;20282;-74
2021/05/05 02:27:58;;;;;;;;;;;;;;;7.67;70.42;99233.45;1626608;87;20205;-74
2021/05/05 02:30:24;;;;;;;;;;;;;;;7.63;70.46;99221.55;1640182;86;20281;-74
2021/05/05 02:32:50;;;;;;;;;;;;;;;7.59;70.34;99225.94;1625287;87;20262;-74
2021/05/05 02:35:17;;;;;;;;;;;;;;;7.54;70.44;99221.80;1625097;87;20262;-74
2021/05/05 02:37:44;;;;;;;;;;;;;;;7.53;70.56;99223.97;1622382;87;20259;-74
2021/05/05 02:40:12;;;;;;;;;;;;;;;7.51;70.55;99224.45;1603542;88;20274;-74
2021/05/05 02:42:38;;;;;;;;;;;;;;;7.49;70.53;99223.20;1603219;88;20267;-73
2021/05/05 02:45:05;;;;;;;;;;;;;;;7.46;70.48;99219.42;1627061;87;20256;-73
2021/05/05 02:47:31;;;;;;;;;;;;;;;7.48;70.72;99221.95;1589346;88;20271;-73
2021/05/05 02:49:57;;;;;;;;;;;;;;;7.48;70.65;99218.94;1610365;88;20272;-73
2021/05/05 02:52:23;;;;;;;;;;;;;;;7.50;70.70;99215.05;1602266;88;20215;-73
2021/05/05 02:54:49;;;;;;;;;;;;;;;7.52;70.71;99217.98;1622054;88;20263;-73
2021/05/05 02:57:16;;;;;;;;;;;;;;;7.53;70.71;99211.10;1607944;88;20273;-73
2021/05/05 02:59:42;;;;;;;;;;;;;;;7.56;70.72;99208.45;1597579;88;20287;-73
2021/05/05 03:02:08;;;;;;;;;;;;;;;7.59;70.78;99206.64;1605846;88;20262;-73
2021/05/05 03:04:34;;;;;;;;;;;;;;;7.62;70.75;99200.58;1613398;88;20233;-73
2021/05/05 03:07:00;;;;;;;;;;;;;;;7.62;70.77;99205.72;1624631;87;20204;-73
2021/05/05 03:09:27;;;;;;;;;;;;;;;7.63;70.78;99200.98;1603731;87;20805;-73
2021/05/05 03:11:57;;;;;;;;;;;;;;;7.63;70.82;99195.39;1606156;88;20291;-73
2021/05/05 03:14:24;;;;;;;;;;;;;;;7.66;70.65;99202.18;1612327;88;20178;-73
2021/05/05 03:16:53;;;;;;;;;;;;;;;7.66;70.74;99194.47;1611554;87;20262;-74
2021/05/05 03:19:19;;;;;;;;;;;;;;;7.67;70.63;99191.00;1612897;87;20262;-74
2021/05/05 03:21:45;;;;;;;;;;;;;;;7.68;70.80;99184.13;1602068;87;20254;-74
2021/05/05 03:24:12;;;;;;;;;;;;;;;7.69;70.79;99187.95;1588769;88;20232;-74
2021/05/05 03:26:38;;;;;;;;;;;;;;;7.70;70.82;99183.65;1608376;88;20193;-74
2021/05/05 03:29:07;;;;;;;;;;;;;;;7.70;70.81;99188.80;1629276;88;20256;-73
2021/05/05 03:31:34;;;;;;;;;;;;;;;7.69;70.83;99196.95;1603716;87;20280;-73
2021/05/05 03:34:04;;;;;;;;;;;;;;;7.69;70.91;99202.10;1600518;88;20259;-73
2021/05/05 03:36:30;;;;;;;;;;;;;;;7.69;70.87;99194.38;1588478;88;20272;-73
2021/05/05 03:38:56;;;;;;;;;;;;;;;7.70;70.91;99197.36;1600929;88;20271;-73
2021/05/05 03:41:22;;;;;;;;;;;;;;;7.71;70.85;99204.63;1621870;87;20196;-73
2021/05/05 03:43:49;;;;;;;;;;;;;;;7.70;70.97;99197.36;1631770;88;20251;-73
2021/05/05 03:46:15;;;;;;;;;;;;;;;7.71;70.97;99197.76;1601959;87;20274;-73
2021/05/05 03:48:41;;;;;;;;;;;;;;;7.71;70.93;99198.20;1603255;88;21203;-73
2021/05/05 03:51:08;;;;;;;;;;;;;;;7.71;70.99;99193.90;1622162;88;20280;-73
2021/05/05 03:53:34;;;;;;;;;;;;;;;7.72;71.10;99199.89;1606325;88;20262;-73
2021/05/05 03:56:00;;;;;;;;;;;;;;;7.73;71.14;99202.42;1594121;88;20238;-73
2021/05/05 03:58:26;;;;;;;;;;;;;;;7.78;71.16;99204.88;1603533;88;20283;-73
2021/05/05 04:00:52;;;;;;;;;;;;;;;7.83;71.12;99202.98;1621457;87;20262;-73
2021/05/05 04:03:18;;;;;;;;;;;;;;;7.93;71.13;99201.41;1608140;88;20252;-73
2021/05/05 04:05:44;;;;;;;;;;;;;;;8.10;71.26;99206.08;1601785;88;20203;-74
2021/05/05 04:08:17;;;;;;;;;;;;;;;8.28;71.26;99202.98;1609393;88;20254;-74
2021/05/05 04:10:43;;;;;;;;;;;;;;;8.48;71.21;99196.39;1603899;87;111365;-73
2021/05/05 04:13:10;;;;;;;;;;;;;;;8.65;71.27;99199.75;1605432;88;20251;-73
2021/05/05 04:15:36;;;;;;;;;;;;;;;8.73;71.02;99190.89;1623853;87;20256;-73
2021/05/05 04:18:02;;;;;;;;;;;;;;;8.78;70.95;99195.46;1592590;87;21066;-73
2021/05/05 04:20:28;;;;;;;;;;;;;;;8.80;70.86;99200.56;1601825;88;20266;-74
2021/05/05 04:22:54;;;;;;;;;;;;;;;8.77;70.90;99196.80;1601408;88;20289;-74
2021/05/05 04:25:20;;;;;;;;;;;;;;;8.81;70.98;99198.39;1618727;87;20265;-74
2021/05/05 04:27:47;;;;;;;;;;;;;;;8.82;70.98;99197.50;1618373;88;20279;-74
2021/05/05 04:30:17;;;;;;;;;;;;;;;8.82;70.92;99204.78;1603658;87;20262;-74
2021/05/05 04:32:49;;;;;;;;;;;;;;;8.81;70.90;99203.54;1581309;89;20267;-74
2021/05/05 04:35:16;;;;;;;;;;;;;;;8.79;70.96;99204.88;1593102;88;20282;-73
2021/05/05 04:37:42;;;;;;;;;;;;;;;8.79;70.98;99195.86;1612074;87;20274;-73
2021/05/05 04:40:09;;;;;;;;;;;;;;;8.81;71.02;99198.39;1637322;86;20197;-74
2021/05/05 04:42:35;;;;;;;;;;;;;;;8.81;71.01;99195.80;1621554;86;20274;-74
2021/05/05 04:45:04;;;;;;;;;;;;;;;8.82;70.99;99190.61;1632834;86;20250;-72
2021/05/05 04:47:31;;;;;;;;;;;;;;;8.84;71.05;99193.10;1637706;87;20267;-72
2021/05/05 04:49:57;;;;;;;;;;;;;;;8.85;71.13;99194.79;1610687;87;20265;-72
2021/05/05 04:52:23;;;;;;;;;;;;;;;8.88;71.10;99195.53;1612118;87;20204;-72
2021/05/05 04:54:49;;;;;;;;;;;;;;;8.92;71.07;99197.57;1616401;86;20267;-72
2021/05/05 04:57:15;;;;;;;;;;;;;;;8.96;71.09;99197.42;1607239;86;20272;-72
2021/05/05 04:59:41;;;;;;;;;;;;;;;9.05;71.14;99199.31;1632345;86;20226;-72
2021/05/05 05:02:25;;;;;;;;;;;;;;;9.20;71.25;99190.63;1625239;87;20282;-72
2021/05/05 05:04:52;;;;;;;;;;;;;;;9.53;71.33;99201.97;1623841;87;20274;-72
2021/05/05 05:07:18;;;;;;;;;;;;;;;9.93;71.54;99204.81;1627859;87;20265;-72
2021/05/05 05:09:44;;;;;;;;;;;;;;;10.44;71.61;99196.50;1619675;86;20287;-72
2021/05/05 05:12:10;;;;;;;;;;;;;;;10.95;71.22;99200.06;1608626;87;20259;-72
2021/05/05 05:14:37;;;;;;;;;;;;;;;11.46;71.18;99206.56;1625622;87;20251;-73
2021/05/05 05:17:04;;;;;;;;;;;;;;;12.03;71.12;99202.38;1613317;87;20172;-72
2021/05/05 05:19:29;;;;;;;;;;;;;;;12.43;70.65;99198.84;1623406;87;20267;-73
2021/05/05 05:21:55;;;;;;;;;;;;;;;12.79;70.59;99196.25;1622658;86;20222;-74
2021/05/05 05:24:21;;;;;;;;;;;;;;;13.05;70.41;99197.11;1623230;86;20229;-72
2021/05/05 05:26:48;;;;;;;;;;;;;;;13.40;70.68;99196.70;1619963;87;20295;-72
2021/05/05 05:29:16;;;;;;;;;;;;;;;13.58;70.27;99197.04;1626099;86;20269;-72
2021/05/05 05:31:42;;;;;;;;;;;;;;;13.95;70.23;99207.30;1618145;87;20257;-72
2021/05/05 05:34:09;;;;;;;;;;;;;;;14.38;70.23;99205.84;1619537;86;20293;-72
2021/05/05 05:36:35;;;;;;;;;;;;;;;14.79;70.23;99195.78;1615478;86;20297;-72
2021/05/05 05:39:01;;;;;;;;;;;;;;;15.13;70.41;99199.89;1621134;87;20294;-72
2021/05/05 05:41:27;;;;;;;;;;;;;;;15.26;69.98;99206.55;1617879;87;20317;-72
2021/05/05 05:43:54;;;;;;;;;;;;;;;15.43;69.79;99205.10;1616812;87;20308;-73
2021/05/05 05:46:20;;;;;;;;;;;;;;;15.54;69.54;99214.44;1623560;87;20593;-73
2021/05/05 05:48:46;;;;;;;;;;;;;;;15.74;69.37;99200.23;1619835;87;20541;-72
2021/05/05 05:51:12;;;;;;;;;;;;;;;15.98;69.46;99201.37;1619484;87;20841;-72
2021/05/05 05:53:39;;;;;;;;;;;;;;;16.32;69.48;99199.28;1640998;85;20289;-72
2021/05/05 05:56:06;;;;;;;;;;;;;;;16.45;69.27;99194.51;1620283;87;20349;-74
2021/05/05 05:58:32;;;;;;;;;;;;;;;16.57;68.99;99194.20;1618177;87;20285;-74
2021/05/05 06:00:59;;;;;;;;;;;;;;;16.74;69.28;99198.36;1619745;87;20536;-74
2021/05/05 06:03:25;;;;;;;;;;;;;;;16.71;68.72;99202.47;1610664;87;20301;-72
2021/05/05 06:05:51;;;;;;;;;;;;;;;16.66;68.88;99196.23;1618291;87;20294;-72
2021/05/05 06:08:19;;;;;;;;;;;;;;;16.66;69.02;99200.15;1607025;87;20620;-72
2021/05/05 06:10:45;;;;;;;;;;;;;;;16.66;69.02;99200.15;1615066;87;20304;-72
2021/05/05 06:13:11;;;;;;;;;;;;;;;16.48;68.37;99203.91;1618760;87;20420;-73
2021/05/05 06:15:38;;;;;;;;;;;;;;;16.38;68.60;99194.52;1617851;87;20382;-74
2021/05/05 06:18:06;;;;;;;;;;;;;;;16.49;68.42;99205.59;1621891;87;20290;-73
2021/05/05 06:20:33;;;;;;;;;;;;;;;16.48;68.12;99211.74;1616685;87;20275;-73
2021/05/05 06:22:59;;;;;;;;;;;;;;;16.44;68.06;99196.75;1614036;87;20193;-73
2021/05/05 06:25:25;;;;;;;;;;;;;;;16.37;67.92;99217.63;1622093;87;20221;-72
2021/05/05 06:27:51;;;;;;;;;;;;;;;16.39;67.94;99206.63;1620750;87;20166;-72
2021/05/05 06:30:18;;;;;;;;;;;;;;;16.46;67.71;99205.31;1617275;86;322966;-72
2021/05/05 06:32:44;;;;;;;;;;;;;;;16.50;67.57;99210.71;1664928;86;20275;-72
2021/05/05 06:35:11;;;;;;;;;;;;;;;16.77;67.67;99212.52;1642034;86;20253;-71
2021/05/05 06:37:37;;;;;;;;;;;;;;;16.93;67.54;99205.39;1605868;88;20311;-72
2021/05/05 06:40:06;;;;;;;;;;;;;;;16.98;67.41;99211.62;1641305;85;20233;-72
2021/05/05 06:42:33;;;;;;;;;;;;;;;17.06;67.21;99215.41;1620776;85;20471;-72
2021/05/05 06:44:59;;;;;;;;;;;;;;;16.98;66.70;99203.78;1658024;85;20264;-72
2021/05/05 06:47:31;;;;;;;;;;;;;;;17.20;67.22;99215.32;1644275;85;20262;-71
2021/05/05 06:49:57;;;;;;;;;;;;;;;17.37;66.55;99214.21;1645778;85;20268;-71
2021/05/05 06:52:23;;;;;;;;;;;;;;;17.27;66.63;99215.75;1644555;85;21377;-72
2021/05/05 06:54:49;;;;;;;;;;;;;;;17.47;66.62;99226.20;1644128;85;21381;-72
2021/05/05 06:57:15;;;;;;;;;;;;;;;17.63;66.35;99226.02;1647952;85;20221;-72
2021/05/05 06:59:41;;;;;;;;;;;;;;;17.66;66.27;99223.23;1656640;85;20222;-72
2021/05/05 07:02:07;;;;;;;;;;;;;;;17.87;66.40;99228.29;1651151;84;20227;-72
2021/05/05 07:04:33;;;;;;;;;;;;;;;17.42;65.77;99232.20;1645040;85;20301;-72
2021/05/05 07:06:59;;;;;;;;;;;;;;;17.11;66.03;99226.40;1642544;85;20744;-72
2021/05/05 07:09:25;;;;;;;;;;;;;;;17.22;66.03;99225.67;1657269;85;20250;-72
2021/05/05 07:11:51;;;;;;;;;;;;;;;16.87;65.69;99221.44;1655505;84;20707;-72
2021/05/05 07:14:17;;;;;;;;;;;;;;;16.80;66.16;99212.33;1649523;85;20387;-72
2021/05/05 07:16:43;;;;;;;;;;;;;;;16.77;66.11;99193.78;1651824;85;20595;-72
2021/05/05 07:19:17;;;;;;;;;;;;;;;16.52;65.65;99201.48;1648294;85;20314;-72
2021/05/05 07:21:43;;;;;;;;;;;;;;;16.59;65.89;99207.99;1649287;86;20224;-72
2021/05/05 07:24:09;;;;;;;;;;;;;;;16.53;65.44;99210.98;1647263;85;20635;-72
2021/05/05 07:26:35;;;;;;;;;;;;;;;16.30;65.29;99204.59;1649693;86;20286;-73
2021/05/05 07:29:01;;;;;;;;;;;;;;;16.22;65.09;99201.15;1646922;85;20276;-71
2021/05/05 07:31:27;;;;;;;;;;;;;;;16.06;65.08;99189.17;1643798;85;20283;-71
2021/05/05 07:33:54;;;;;;;;;;;;;;;15.87;65.33;99196.80;1651657;85;20227;-72
2021/05/05 07:36:26;;;;;;;;;;;;;;;15.56;64.87;99203.46;1650100;85;20286;-72
2021/05/05 07:38:59;;;;;;;;;;;;;;;15.27;64.63;99209.52;1649850;85;20302;-72
2021/05/05 07:41:47;;;;;;;;;;;;;;;14.98;64.51;99196.89;1659566;85;20407;-72
2021/05/05 07:44:30;;;;;;;;;;;;;;;14.72;64.44;99192.68;1655131;85;20287;-72
2021/05/05 07:51:13;;;;;;;;;;;;;;;14.48;64.23;99193.59;1655667;85;20320;-71
2021/05/05 07:53:42;;;;;;;;;;;;;;;14.44;64.11;99208.15;1656412;85;20570;-71
2021/05/05 07:56:08;;;;;;;;;;;;;;;14.38;64.02;99196.28;1669758;84;20864;-71
2021/05/05 07:58:34;;;;;;;;;;;;;;;14.36;63.89;99199.89;1662295;85;20584;-71
2021/05/05 08:01:00;;;;;;;;;;;;;;;14.32;63.83;99195.31;1659954;85;311252;-71
2021/05/05 08:03:29;;;;;;;;;;;;;;;14.18;63.55;99206.45;1659724;85;20392;-72
2021/05/05 08:05:55;;;;;;;;;;;;;;;14.08;63.62;99215.65;1650018;85;21093;-71
2021/05/05 08:08:21;;;;;;;;;;;;;;;14.09;63.35;99216.03;1653985;85;20289;-72
2021/05/05 08:10:47;;;;;;;;;;;;;;;13.99;63.27;99212.72;1656734;85;20298;-72
2021/05/05 08:13:13;;;;;;;;;;;;;;;14.09;63.53;99216.03;1650006;85;20377;-71
2021/05/05 08:15:40;;;;;;;;;;;;;;;14.32;63.57;99210.91;1649661;85;20286;-72
2021/05/05 08:18:07;;;;;;;;;;;;;;;14.46;63.31;99216.70;1653992;85;20694;-71
2021/05/05 08:20:34;;;;;;;;;;;;;;;14.37;63.08;99214.11;1652210;85;20237;-71
2021/05/05 08:23:04;;;;;;;;;;;;;;;14.20;62.73;99215.00;1658879;85;20255;-71
2021/05/05 08:25:30;;;;;;;;;;;;;;;14.18;62.84;99216.00;1652793;85;20251;-72
2021/05/05 08:27:57;;;;;;;;;;;;;;;14.21;62.71;99215.38;1662420;85;20255;-71
2021/05/05 08:30:23;;;;;;;;;;;;;;;14.16;62.42;99203.55;1664441;85;20184;-71
2021/05/05 08:32:49;;;;;;;;;;;;;;;14.00;62.18;99219.60;1662244;85;20168;-71
2021/05/05 08:35:17;;;;;;;;;;;;;;;13.94;62.32;99220.76;1655732;86;20264;-72
2021/05/05 08:37:43;;;;;;;;;;;;;;;13.87;62.42;99220.23;1654754;85;21061;-71
2021/05/05 08:40:12;;;;;;;;;;;;;;;13.97;62.30;99224.50;1610799;86;20260;-72
2021/05/05 08:42:39;;;;;;;;;;;;;;;14.06;62.23;99216.19;1621755;87;21093;-71
2021/05/05 08:45:09;;;;;;;;;;;;;;;14.16;62.03;99202.25;1626449;87;20449;-72
2021/05/05 08:47:37;;;;;;;;;;;;;;;14.18;61.62;99223.80;1616932;86;20274;-72
2021/05/05 08:50:05;;;;;;;;;;;;;;;14.41;61.61;99224.76;1628914;87;20171;-71
2021/05/05 08:52:32;;;;;;;;;;;;;;;14.54;61.46;99214.53;1622909;86;20652;-71
2021/05/05 08:54:58;;;;;;;;;;;;;;;14.98;61.35;99235.47;1623596;87;20319;-71
2021/05/05 08:57:24;;;;;;;;;;;;;;;15.73;61.45;99229.37;1622533;86;20194;-71
2021/05/05 08:59:50;;;;;;;;;;;;;;;16.22;61.03;99230.30;1614364;87;20184;-71
2021/05/05 09:02:18;;;;;;;;;;;;;;;16.41;61.37;99235.23;1623238;86;20272;-71
2021/05/05 09:05:01;;;;;;;;;;;;;;;16.39;61.47;99224.89;1619887;87;20476;-71
2021/05/05 09:07:36;;;;;;;;;;;;;;;16.73;61.51;99231.92;1629571;86;20626;-72
2021/05/05 09:10:18;;;;;;;;;;;;;;;16.54;61.08;99220.49;1621393;86;20264;-73
2021/05/05 09:12:46;;;;;;;;;;;;;;;16.06;61.04;99232.20;1622262;87;20171;-72
2021/05/05 09:15:20;;;;;;;;;;;;;;;15.74;61.01;99228.44;1628590;87;20277;-71
2021/05/05 09:17:53;;;;;;;;;;;;;;;15.53;61.40;99222.72;1630941;87;20308;-71
2021/05/05 09:20:32;;;;;;;;;;;;;;;15.22;60.74;99228.02;1619856;86;20273;-71
2021/05/05 09:22:59;;;;;;;;;;;;;;;14.96;61.12;99211.30;1625358;87;20263;-71
2021/05/05 09:25:32;;;;;;;;;;;;;;;14.87;60.93;99226.95;1612842;86;20607;-71
2021/05/05 09:28:18;;;;;;;;;;;;;;;14.76;60.42;99224.57;1630861;86;20267;-71
2021/05/05 09:30:48;;;;;;;;;;;;;;;14.57;60.54;99220.38;1618147;86;20419;-72
2021/05/05 09:33:31;;;;;;;;;;;;;;;14.49;59.98;99227.78;1625781;87;20302;-71
2021/05/05 09:35:59;;;;;;;;;;;;;;;14.39;59.71;99216.63;1614248;87;20206;-71
2021/05/05 09:38:49;;;;;;;;;;;;;;;14.40;59.97;99217.00;1639837;85;20223;-71
2021/05/05 09:41:18;;;;;;;;;;;;;;;14.47;59.55;99210.13;1661152;86;20203;-71
2021/05/05 09:43:45;;;;;;;;;;;;;;;14.44;59.26;99219.85;1644252;85;20330;-71
2021/05/05 09:46:30;;;;;;;;;;;;;;;14.40;59.13;99206.14;1650648;85;20345;-71
2021/05/05 09:49:25;;;;;;;;;;;;;;;14.28;58.96;99215.06;1650363;85;20339;-71
2021/05/05 09:51:56;;;;;;;;;;;;;;;14.24;59.32;99213.92;1651215;86;20566;-72
2021/05/05 09:54:30;;;;;;;;;;;;;;;14.23;58.91;99219.20;1651938;85;20287;-71
2021/05/05 09:57:17;;;;;;;;;;;;;;;14.16;58.60;99224.34;1629712;86;20305;-71
2021/05/05 10:00:13;;;;;;;;;;;;;;;14.16;58.98;99211.34;1648022;85;20258;-71
2021/05/05 10:02:50;;;;;;;;;;;;;;;14.17;58.58;99207.37;1656189;85;20306;-71
2021/05/05 10:05:23;;;;;;;;;;;;;;;14.22;58.67;99203.23;1655043;86;20191;-71
2021/05/05 10:08:01;;;;;;;;;;;;;;;14.17;58.49;99211.73;1660188;85;20753;-71
2021/05/05 10:10:29;;;;;;;;;;;;;;;14.14;58.48;99214.03;1657519;85;20307;-71
2021/05/05 10:13:01;;;;;;;;;;;;;;;14.23;58.58;99213.55;1653217;85;20605;-71
2021/05/05 10:15:30;;;;;;;;;;;;;;;14.28;58.38;99208.09;1652642;85;20228;-71
2021/05/05 10:17:56;;;;;;;;;;;;;;;14.37;58.29;99212.81;1659742;85;20263;-71
2021/05/05 10:20:28;;;;;;;;;;;;;;;14.44;58.31;99205.55;1663580;85;20580;-71
2021/05/05 10:22:56;;;;;;;;;;;;;;;14.42;58.13;99214.73;1649861;85;20529;-71
2021/05/05 10:25:23;;;;;;;;;;;;;;;14.42;57.83;99212.12;1659953;85;20168;-72
2021/05/05 10:27:49;;;;;;;;;;;;;;;14.46;58.09;99208.44;1641679;85;20175;-71
2021/05/05 10:30:18;;;;;;;;;;;;;;;14.47;57.81;99225.73;1659809;85;20247;-71
2021/05/05 10:32:46;;;;;;;;;;;;;;;14.38;57.36;99218.39;1646715;85;20547;-71
2021/05/05 10:35:19;;;;;;;;;;;;;;;14.29;57.65;99224.54;1661396;85;20263;-71
2021/05/05 10:37:55;;;;;;;;;;;;;;;14.23;57.32;99220.50;1652166;84;20535;-71
2021/05/05 10:40:28;;;;;;;;;;;;;;;14.21;57.79;99230.14;1643496;85;20582;-71
2021/05/05 10:42:56;;;;;;;;;;;;;;;14.21;57.44;99230.98;1656153;85;20270;-71
2021/05/05 10:45:31;;;;;;;;;;;;;;;14.25;57.33;99229.91;1654477;85;20259;-71
2021/05/05 10:48:14;;;;;;;;;;;;;;;14.21;57.21;99215.38;1654288;85;20544;-71
2021/05/05 10:50:57;;;;;;;;;;;;;;;14.24;57.06;99220.42;1650488;85;20532;-71
2021/05/05 10:53:26;;;;;;;;;;;;;;;14.11;56.73;99221.98;1653503;85;20280;-71
2021/05/05 10:55:55;;;;;;;;;;;;;;;14.02;56.80;99221.66;1643853;85;20169;-71
2021/05/05 10:58:24;;;;;;;;;;;;;;;14.01;56.93;99223.87;1648637;85;20264;-71
2021/05/05 11:00:53;;;;;;;;;;;;;;;13.98;56.66;99226.64;1650271;85;20264;-72
2021/05/05 11:03:39;;;;;;;;;;;;;;;14.00;57.03;99223.04;1649915;86;20524;-72
2021/05/05 11:06:34;;;;;;;;;;;;;;;14.07;56.68;99231.33;1647891;85;20267;-71
2021/05/05 11:09:16;;;;;;;;;;;;;;;14.04;56.66;99233.63;1643207;85;20194;-72
2021/05/05 11:11:44;;;;;;;;;;;;;;;13.98;56.25;99247.42;1651465;86;20551;-71
2021/05/05 11:14:32;;;;;;;;;;;;;;;14.01;56.33;99239.02;1651594;85;20276;-72
2021/05/05 11:17:11;;;;;;;;;;;;;;;14.08;56.32;99239.05;1647762;85;20706;-72
2021/05/05 11:19:40;;;;;;;;;;;;;;;14.19;55.50;99218.98;1649705;86;20615;-71
2021/05/05 11:22:20;;;;;;;;;;;;;;;14.19;55.80;99246.28;1642881;85;20334;-71
2021/05/05 11:24:47;;;;;;;;;;;;;;;14.20;55.87;99239.70;1643746;85;20308;-71
2021/05/05 11:27:39;;;;;;;;;;;;;;;14.23;55.73;99245.20;1650973;85;20300;-72
2021/05/05 11:30:39;;;;;;;;;;;;;;;14.23;55.82;99249.10;1649077;86;20330;-71
2021/05/05 11:33:07;;;;;;;;;;;;;;;14.26;55.95;99232.04;1560721;90;20475;-72
2021/05/05 11:35:33;;;;;;;;;;;;;;;14.29;55.96;99227.14;1564440;90;20315;-72
2021/05/05 11:38:18;;;;;;;;;;;;;;;14.22;55.48;99247.42;1558735;90;20877;-72
2021/05/05 11:40:41;;;;;;;;;;;;;;;14.11;55.14;99255.78;1566179;90;20264;-72
2021/05/05 11:43:17;;;;;;;;;;;;;;;14.04;55.20;99245.78;1573124;89;20544;-72
2021/05/05 11:45:51;;;;;;;;;;;;;;;14.04;55.39;99242.72;1566261;90;20614;-71
2021/05/05 11:48:28;;;;;;;;;;;;;;;13.87;54.92;99244.92;1571760;90;20608;-71
2021/05/05 11:50:54;;;;;;;;;;;;;;;13.87;55.04;99220.23;1571480;90;20278;-72
2021/05/05 11:53:32;;;;;;;;;;;;;;;13.95;55.22;99235.89;1571462;89;20679;-72
2021/05/05 11:55:58;;;;;;;;;;;;;;;14.02;54.85;99228.16;1568623;90;21157;-72
2021/05/05 11:58:27;;;;;;;;;;;;;;;14.11;55.07;99221.15;1571403;89;20648;-70
2021/05/05 12:00:54;;;;;;;;;;;;;;;14.04;54.64;99221.92;1566668;90;21097;-72
2021/05/05 12:03:22;;;;;;;;;;;;;;;14.02;55.03;99214.70;1590224;86;20308;-74
2021/05/05 12:05:48;;;;;;;;;;;;;;;14.05;54.79;99222.30;1652288;85;20568;-74
2021/05/05 12:08:17;;;;;;;;;;;;;;;14.07;54.72;99214.43;1647842;85;20307;-74
2021/05/05 12:10:58;;;;;;;;;;;;;;;14.18;54.94;99209.05;1643475;85;20305;-72
2021/05/05 12:13:39;;;;;;;;;;;;;;;14.35;55.01;99204.70;1651201;86;20288;-71
2021/05/05 12:16:10;;;;;;;;;;;;;;;14.39;54.73;99207.52;1647146;86;20687;-71
2021/05/05 12:18:47;;;;;;;;;;;;;;;14.27;54.42;99209.02;1654078;85;20552;-71
2021/05/05 12:21:19;;;;;;;;;;;;;;;14.23;54.34;99207.50;1639044;85;20425;-71
2021/05/05 12:23:49;;;;;;;;;;;;;;;14.16;54.15;99204.84;1655458;85;20492;-70
2021/05/05 12:26:21;;;;;;;;;;;;;;;14.11;54.17;99197.30;1645785;85;20523;-70
2021/05/05 12:29:08;;;;;;;;;;;;;;;14.07;54.11;99220.47;1652597;86;20272;-70
2021/05/05 12:31:38;;;;;;;;;;;;;;;14.02;54.10;99224.26;1650950;85;20318;-69
2021/05/05 12:34:07;;;;;;;;;;;;;;;13.87;54.30;99228.03;1651740;85;20583;-70
2021/05/05 12:36:35;;;;;;;;;;;;;;;13.68;54.03;99254.56;1651115;85;20516;-71
2021/05/05 12:39:04;;;;;;;;;;;;;;;13.40;54.06;99269.41;1650291;85;20266;-70
2021/05/05 12:41:48;;;;;;;;;;;;;;;13.05;54.23;99280.14;1646183;85;20182;-71
2021/05/05 12:44:15;;;;;;;;;;;;;;;12.76;54.68;99272.45;1648232;85;20272;-70
2021/05/05 12:47:06;;;;;;;;;;;;;;;12.58;54.96;99262.92;1648878;85;20280;-71
2021/05/05 12:49:28;;;;;;;;;;;;;;;12.54;55.28;99268.70;1647602;86;20477;-71
2021/05/05 12:51:54;;;;;;;;;;;;;;;12.67;55.36;99275.92;1650333;85;20460;-70
2021/05/05 12:54:24;;;;;;;;;;;;;;;12.73;55.31;99258.78;1660075;85;20469;-71
2021/05/05 12:56:50;;;;;;;;;;;;;;;12.82;55.44;99264.39;1649315;85;20263;-70
2021/05/05 12:59:22;;;;;;;;;;;;;;;12.95;55.24;99259.92;1639486;85;20285;-70
2021/05/05 13:01:51;;;;;;;;;;;;;;;13.03;55.23;99259.08;1642321;85;20266;-71
2021/05/05 13:04:18;;;;;;;;;;;;;;;13.15;55.21;99258.48;1646865;85;20179;-70